Time;durP1;ratioP1;P1;durP2;ratioP2;P2;SDS_P1;SDS_P2;PMS_P1;PMS_P2;Temp;Humidity;BMP_temperature;BMP_pressure;BME280_temperature;BME280_humidity;BME280_pressure;Samples;Min_cycle;Max_cycle;Signal;HPM_P1;HPM_P2
2023/07/26 00:02:17;;;;;;;1.35;1.00;;;15.50;99.90;;;;;;4998370;28;20283;-72
2023/07/26 00:04:47;;;;;;;1.85;1.05;;;15.50;99.90;;;;;;4986282;28;20167;-72
2023/07/26 00:07:16;;;;;;;1.48;1.10;;;15.50;99.90;;;;;;4999200;28;20176;-71
2023/07/26 00:09:43;;;;;;;1.27;1.10;;;15.40;99.90;;;;;;4997262;28;20214;-73
2023/07/26 00:12:09;;;;;;;1.40;1.10;;;15.50;99.90;;;;;;4997114;28;20242;-72
2023/07/26 00:14:35;;;;;;;3.25;1.08;;;15.50;99.90;;;;;;4981893;28;20267;-73
2023/07/26 00:17:01;;;;;;;1.40;1.10;;;15.50;99.90;;;;;;4985989;28;20196;-73
2023/07/26 00:19:26;;;;;;;1.50;1.10;;;15.50;99.90;;;;;;4997088;28;20222;-71
2023/07/26 00:21:52;;;;;;;1.38;1.20;;;15.50;99.90;;;;;;4990334;28;20206;-72
2023/07/26 00:24:17;;;;;;;5.40;1.10;;;15.50;99.90;;;;;;4995724;28;20187;-70
2023/07/26 00:26:43;;;;;;;1.63;0.95;;;15.50;99.90;;;;;;4997372;28;20277;-72
2023/07/26 00:29:08;;;;;;;1.98;1.10;;;15.60;99.90;;;;;;4997364;28;20195;-70
2023/07/26 00:31:39;;;;;;;1.77;1.30;;;15.60;99.90;;;;;;4997060;28;20184;-73
2023/07/26 00:34:07;;;;;;;1.13;0.93;;;15.60;99.90;;;;;;5009424;28;20226;-73
2023/07/26 00:36:32;;;;;;;1.10;1.00;;;15.60;99.90;;;;;;4989505;28;20180;-73
2023/07/26 00:38:58;;;;;;;1.40;1.20;;;15.60;99.90;;;;;;4994622;28;20203;-71
2023/07/26 00:41:23;;;;;;;1.15;1.00;;;15.70;99.90;;;;;;4999166;28;20182;-72
2023/07/26 00:43:53;;;;;;;2.53;1.02;;;15.70;99.90;;;;;;4996180;28;20366;-70
2023/07/26 00:46:19;;;;;;;1.13;0.90;;;15.70;99.90;;;;;;4995588;28;20177;-73
2023/07/26 00:48:47;;;;;;;2.97;1.48;;;15.80;99.90;;;;;;4996738;28;20222;-71
2023/07/26 00:51:13;;;;;;;1.33;1.10;;;15.80;99.90;;;;;;4997470;28;20176;-71
2023/07/26 00:53:41;;;;;;;1.65;1.08;;;15.80;99.90;;;;;;4997557;28;20289;-71
2023/07/26 00:56:09;;;;;;;1.38;1.10;;;15.70;99.90;;;;;;4995983;28;20210;-72
2023/07/26 00:58:35;;;;;;;1.95;1.30;;;15.90;99.90;;;;;;4994116;28;20199;-68
2023/07/26 01:01:00;;;;;;;1.42;1.00;;;15.80;99.90;;;;;;4977488;28;20194;-71
2023/07/26 01:03:27;;;;;;;1.75;1.10;;;15.80;99.90;;;;;;4990649;28;20214;-69
2023/07/26 01:06:09;;;;;;;1.20;1.10;;;15.80;99.90;;;;;;4977924;28;20279;-73
2023/07/26 01:08:55;;;;;;;3.22;1.02;;;15.80;99.90;;;;;;4977775;28;20196;-72
2023/07/26 01:11:48;;;;;;;2.35;0.95;;;15.80;99.90;;;;;;4978528;28;20167;-73
2023/07/26 01:14:17;;;;;;;2.25;1.05;;;15.80;99.90;;;;;;4994349;28;20303;-73
2023/07/26 01:16:43;;;;;;;2.65;1.23;;;15.80;99.90;;;;;;4996932;28;20222;-72
2023/07/26 01:19:09;;;;;;;2.00;1.10;;;15.80;99.90;;;;;;4997036;28;20176;-71
2023/07/26 01:21:34;;;;;;;1.55;1.40;;;15.90;99.90;;;;;;4996051;28;20286;-72
2023/07/26 01:24:00;;;;;;;2.03;1.17;;;15.90;99.90;;;;;;4984799;28;20211;-73
2023/07/26 01:26:26;;;;;;;1.42;1.17;;;15.90;99.90;;;;;;4979874;28;20256;-70
2023/07/26 01:28:51;;;;;;;1.05;0.95;;;15.90;99.90;;;;;;4996396;28;20191;-73
2023/07/26 01:31:20;;;;;;;1.23;1.10;;;15.90;99.90;;;;;;4994748;28;20504;-72
2023/07/26 01:33:51;;;;;;;2.10;1.17;;;15.80;99.90;;;;;;4986162;28;20224;-72
2023/07/26 01:36:19;;;;;;;1.52;1.10;;;15.80;99.90;;;;;;4996318;28;20194;-71
2023/07/26 01:38:45;;;;;;;1.98;1.20;;;15.80;99.90;;;;;;4996310;28;20206;-72
2023/07/26 01:41:12;;;;;;;2.45;1.20;;;15.80;99.90;;;;;;4996410;28;20295;-72
2023/07/26 01:43:40;;;;;;;2.30;1.23;;;15.80;99.90;;;;;;4995705;28;20298;-72
2023/07/26 01:46:06;;;;;;;1.50;1.30;;;15.80;99.90;;;;;;4997786;28;21135;-73
2023/07/26 01:48:31;;;;;;;1.25;1.00;;;15.80;99.90;;;;;;4990755;28;20207;-70
2023/07/26 01:50:57;;;;;;;2.97;1.20;;;15.80;99.90;;;;;;5000438;28;20297;-74
2023/07/26 01:53:25;;;;;;;2.03;1.20;;;15.80;99.90;;;;;;4994283;28;20207;-73
2023/07/26 01:55:52;;;;;;;1.50;1.10;;;15.80;99.90;;;;;;4995185;28;20179;-72
2023/07/26 01:58:18;;;;;;;1.27;1.17;;;15.80;99.90;;;;;;4996822;28;20175;-72
2023/07/26 02:00:44;;;;;;;2.40;1.30;;;15.80;99.90;;;;;;4996684;28;20199;-71
2023/07/26 02:03:09;;;;;;;1.35;1.20;;;15.90;99.90;;;;;;4995906;28;20230;-73
2023/07/26 02:05:44;;;;;;;1.25;1.05;;;15.90;99.90;;;;;;4989784;28;20198;-73
2023/07/26 02:08:11;;;;;;;1.20;1.10;;;15.90;99.90;;;;;;4976851;28;20191;-73
2023/07/26 02:10:36;;;;;;;1.20;1.10;;;15.90;99.90;;;;;;5003419;28;20182;-73
2023/07/26 02:13:04;;;;;;;2.42;1.10;;;15.90;99.90;;;;;;4976631;28;20195;-71
2023/07/26 02:15:32;;;;;;;1.83;1.20;;;15.90;99.90;;;;;;4976561;28;20187;-73
2023/07/26 02:18:00;;;;;;;1.45;1.15;;;16.00;99.90;;;;;;4976720;28;20270;-73
2023/07/26 02:20:26;;;;;;;1.20;1.00;;;16.00;99.90;;;;;;4977334;28;20195;-72
2023/07/26 02:22:52;;;;;;;1.42;1.30;;;16.00;99.90;;;;;;4992189;28;20210;-73
2023/07/26 02:25:20;;;;;;;1.30;1.10;;;16.00;99.90;;;;;;4985767;28;20186;-73
2023/07/26 02:27:45;;;;;;;1.65;1.10;;;16.00;99.90;;;;;;4993576;28;20180;-69
2023/07/26 02:30:11;;;;;;;1.73;1.20;;;16.00;99.90;;;;;;4989623;28;20175;-73
2023/07/26 02:32:37;;;;;;;1.50;1.20;;;16.10;99.90;;;;;;4995193;28;20202;-73
2023/07/26 02:35:02;;;;;;;1.15;1.00;;;16.10;99.90;;;;;;4995214;28;20245;-74
2023/07/26 02:37:30;;;;;;;1.15;1.05;;;16.10;99.90;;;;;;4987887;28;20172;-72
2023/07/26 02:39:56;;;;;;;1.17;1.08;;;16.10;99.90;;;;;;4990112;28;20195;-70
2023/07/26 02:42:25;;;;;;;1.80;1.27;;;16.10;99.90;;;;;;4984836;28;20197;-70
2023/07/26 02:44:53;;;;;;;1.20;1.10;;;16.10;99.90;;;;;;4991018;28;20184;-71
2023/07/26 02:47:19;;;;;;;1.52;1.02;;;16.10;99.90;;;;;;4984715;28;20269;-73
2023/07/26 02:49:44;;;;;;;1.30;1.10;;;16.20;99.90;;;;;;4995236;28;20199;-72
2023/07/26 02:52:12;;;;;;;1.55;1.02;;;16.20;99.90;;;;;;4993812;28;20195;-72
2023/07/26 02:54:40;;;;;;;1.10;1.00;;;16.10;99.90;;;;;;4993138;28;20175;-71
2023/07/26 02:57:06;;;;;;;4.63;1.33;;;16.10;99.90;;;;;;4994595;28;20194;-72
2023/07/26 02:59:34;;;;;;;1.75;1.30;;;16.10;99.90;;;;;;4994517;28;20261;-73
2023/07/26 03:01:59;;;;;;;1.60;1.17;;;16.10;99.90;;;;;;4994814;28;20190;-70
2023/07/26 03:04:27;;;;;;;1.67;1.30;;;16.10;99.90;;;;;;4994723;28;20229;-72
2023/07/26 03:06:53;;;;;;;1.83;1.40;;;16.10;99.90;;;;;;4994100;28;20183;-72
2023/07/26 03:09:21;;;;;;;1.30;1.20;;;16.10;99.90;;;;;;4988742;28;20229;-73
2023/07/26 03:11:46;;;;;;;2.17;1.35;;;16.10;99.90;;;;;;4990566;28;20207;-71
2023/07/26 03:14:14;;;;;;;2.38;1.48;;;16.00;99.90;;;;;;4994786;28;20196;-73
2023/07/26 03:16:44;;;;;;;1.92;1.15;;;16.10;99.90;;;;;;4994367;28;20175;-71
2023/07/26 03:19:10;;;;;;;1.30;1.20;;;16.10;99.90;;;;;;4993364;28;20171;-73
2023/07/26 03:21:35;;;;;;;1.58;1.48;;;16.10;99.90;;;;;;4994810;28;20183;-73
2023/07/26 03:24:01;;;;;;;1.38;1.23;;;16.10;99.90;;;;;;4994643;28;20207;-72
2023/07/26 03:26:29;;;;;;;1.30;1.20;;;16.10;99.90;;;;;;5001526;28;20176;-73
2023/07/26 03:28:57;;;;;;;1.40;1.20;;;16.10;99.90;;;;;;4994619;28;20171;-72
2023/07/26 03:31:27;;;;;;;1.50;1.30;;;16.10;99.90;;;;;;4991409;28;20210;-70
2023/07/26 03:33:55;;;;;;;1.55;1.20;;;16.10;99.90;;;;;;4994766;28;20214;-70
2023/07/26 03:36:21;;;;;;;2.67;1.40;;;16.10;99.90;;;;;;4994565;28;20187;-72
2023/07/26 03:38:47;;;;;;;1.50;1.30;;;16.10;99.90;;;;;;4994620;28;20186;-73
2023/07/26 03:41:14;;;;;;;3.22;1.35;;;16.10;99.90;;;;;;4994272;28;20187;-73
2023/07/26 03:43:40;;;;;;;2.88;1.40;;;16.10;99.90;;;;;;4994821;28;20243;-73
2023/07/26 03:46:08;;;;;;;3.03;1.30;;;16.00;99.90;;;;;;4994849;28;20247;-71
2023/07/26 03:48:33;;;;;;;1.98;1.50;;;16.00;99.90;;;;;;4994486;28;20191;-72
2023/07/26 03:50:59;;;;;;;1.75;1.27;;;16.00;99.90;;;;;;4994262;28;20265;-73
2023/07/26 03:53:24;;;;;;;3.83;1.42;;;16.00;99.90;;;;;;4992501;28;20168;-72
2023/07/26 03:55:52;;;;;;;1.40;1.25;;;16.00;99.90;;;;;;4994942;28;20183;-72
2023/07/26 03:58:18;;;;;;;4.03;1.42;;;16.00;99.90;;;;;;4993171;28;20183;-71
2023/07/26 04:00:44;;;;;;;1.77;1.30;;;16.00;99.90;;;;;;4975117;28;20198;-73
2023/07/26 04:03:09;;;;;;;2.20;1.60;;;16.00;99.90;;;;;;4988430;28;20204;-70
2023/07/26 04:05:35;;;;;;;2.75;1.35;;;15.90;99.90;;;;;;4994669;28;20254;-72
2023/07/26 04:08:00;;;;;;;1.50;1.40;;;15.90;99.90;;;;;;4991942;28;20265;-72
2023/07/26 04:10:28;;;;;;;1.55;1.40;;;15.90;99.90;;;;;;4989475;28;20203;-73
2023/07/26 04:12:56;;;;;;;3.55;1.52;;;15.90;99.90;;;;;;4993986;28;20278;-72
2023/07/26 04:15:22;;;;;;;1.73;1.60;;;15.90;99.90;;;;;;4990598;28;20180;-69
2023/07/26 04:17:47;;;;;;;1.52;1.40;;;15.90;99.90;;;;;;4985194;28;20192;-69
2023/07/26 04:20:13;;;;;;;2.50;1.42;;;15.90;99.90;;;;;;5002094;28;20191;-67
2023/07/26 04:22:43;;;;;;;1.85;1.50;;;15.90;99.90;;;;;;4998825;28;20265;-68
2023/07/26 04:25:09;;;;;;;2.05;1.48;;;15.90;99.90;;;;;;4995643;28;20182;-69
2023/07/26 04:27:37;;;;;;;3.00;1.73;;;15.90;99.90;;;;;;4998730;28;20175;-73
2023/07/26 04:30:06;;;;;;;1.60;1.23;;;15.90;99.90;;;;;;5000564;28;20207;-72
2023/07/26 04:32:33;;;;;;;2.05;1.40;;;15.90;99.90;;;;;;5001812;28;20183;-71
2023/07/26 04:34:59;;;;;;;1.73;1.30;;;15.90;99.90;;;;;;4997079;28;20175;-72
2023/07/26 04:37:25;;;;;;;1.98;1.52;;;15.90;99.90;;;;;;4997304;28;20233;-71
2023/07/26 04:39:50;;;;;;;4.60;1.65;;;15.90;99.90;;;;;;4996265;28;20171;-72
2023/07/26 04:42:18;;;;;;;2.00;1.50;;;15.90;99.90;;;;;;4993354;28;20199;-71
2023/07/26 04:44:44;;;;;;;1.70;1.40;;;15.90;99.90;;;;;;4985102;28;20217;-70
2023/07/26 04:47:09;;;;;;;1.75;1.33;;;16.00;99.90;;;;;;4997354;28;20171;-72
2023/07/26 04:49:35;;;;;;;1.92;1.45;;;16.00;99.90;;;;;;4996935;28;20187;-69
2023/07/26 04:52:03;;;;;;;3.15;1.60;;;16.00;99.90;;;;;;4994158;28;20190;-73
2023/07/26 04:54:29;;;;;;;1.77;1.38;;;16.00;99.90;;;;;;4981138;28;20181;-73
2023/07/26 04:56:55;;;;;;;2.58;1.60;;;16.00;99.90;;;;;;4987739;28;20179;-72
2023/07/26 04:59:20;;;;;;;3.10;1.55;;;16.10;99.90;;;;;;4994583;28;20278;-72
2023/07/26 05:01:46;;;;;;;1.95;1.50;;;16.10;99.90;;;;;;4996903;28;20207;-73
2023/07/26 05:04:11;;;;;;;1.30;1.20;;;16.10;99.90;;;;;;4997354;28;20231;-70
2023/07/26 05:06:37;;;;;;;2.92;1.58;;;16.10;99.90;;;;;;4997357;28;20347;-72
2023/07/26 05:09:05;;;;;;;2.30;1.50;;;16.10;99.90;;;;;;4997018;28;20246;-69
2023/07/26 05:11:31;;;;;;;4.55;1.70;;;16.10;99.90;;;;;;4997058;28;20183;-73
2023/07/26 05:13:57;;;;;;;3.78;1.85;;;16.20;99.90;;;;;;4997046;28;20214;-70
2023/07/26 05:16:23;;;;;;;2.38;1.65;;;16.20;99.90;;;;;;4984320;28;20176;-72
2023/07/26 05:18:48;;;;;;;2.20;1.50;;;16.20;99.90;;;;;;4978150;28;20203;-71
2023/07/26 05:21:14;;;;;;;5.15;1.85;;;16.30;99.90;;;;;;4993932;28;20200;-68
2023/07/26 05:23:39;;;;;;;1.90;1.50;;;16.30;99.90;;;;;;4993612;28;20196;-72
2023/07/26 05:26:05;;;;;;;2.47;1.40;;;16.30;99.90;;;;;;4996936;28;20190;-72
2023/07/26 05:28:33;;;;;;;1.60;1.40;;;16.30;99.90;;;;;;4995477;28;20251;-70
2023/07/26 05:30:58;;;;;;;1.65;1.45;;;16.40;99.90;;;;;;4995994;28;20175;-71
2023/07/26 05:33:25;;;;;;;2.03;1.60;;;16.40;99.90;;;;;;4995966;28;20202;-69
2023/07/26 05:35:51;;;;;;;1.60;1.50;;;16.50;99.90;;;;;;4994923;28;20174;-72
2023/07/26 05:38:17;;;;;;;2.83;1.40;;;16.50;99.90;;;;;;4995862;28;20266;-72
2023/07/26 05:40:45;;;;;;;2.85;1.50;;;16.50;99.90;;;;;;4996366;28;20290;-72
2023/07/26 05:43:10;;;;;;;2.97;1.45;;;16.60;99.90;;;;;;5008544;28;20200;-73
2023/07/26 05:45:36;;;;;;;2.38;1.48;;;16.60;99.90;;;;;;4986531;28;20180;-70
2023/07/26 05:48:02;;;;;;;2.60;1.50;;;16.60;99.90;;;;;;4978920;28;20200;-71
2023/07/26 05:50:27;;;;;;;6.68;1.80;;;16.70;99.90;;;;;;4989707;28;20296;-71
2023/07/26 05:52:53;;;;;;;3.35;2.00;;;16.70;99.90;;;;;;4978108;28;20191;-68
2023/07/26 05:55:19;;;;;;;1.45;1.30;;;16.80;99.90;;;;;;4995993;28;20186;-70
2023/07/26 05:57:44;;;;;;;2.05;1.80;;;16.80;99.90;;;;;;4996630;28;20209;-73
2023/07/26 06:00:13;;;;;;;1.90;1.40;;;16.80;99.90;;;;;;4996527;28;20203;-74
2023/07/26 06:02:41;;;;;;;2.60;1.80;;;16.80;99.90;;;;;;4996557;28;20215;-73
2023/07/26 06:05:12;;;;;;;2.30;1.60;;;16.80;99.90;;;;;;4996355;28;20182;-74
2023/07/26 06:07:42;;;;;;;1.80;1.60;;;16.90;99.90;;;;;;4994143;28;20179;-75
2023/07/26 06:10:10;;;;;;;1.80;1.50;;;16.90;99.90;;;;;;4993761;28;20251;-74
2023/07/26 06:12:36;;;;;;;2.63;1.40;;;17.00;99.90;;;;;;4979553;28;20207;-74
2023/07/26 06:15:01;;;;;;;2.17;1.35;;;17.00;99.90;;;;;;4976954;28;20175;-75
2023/07/26 06:17:27;;;;;;;1.58;1.25;;;17.00;99.90;;;;;;4992473;28;20171;-73
2023/07/26 06:19:55;;;;;;;2.33;1.50;;;17.10;99.90;;;;;;4992029;28;20206;-75
2023/07/26 06:22:23;;;;;;;1.75;1.55;;;17.10;99.90;;;;;;5005878;28;20176;-73
2023/07/26 06:24:48;;;;;;;2.22;1.50;;;17.20;99.90;;;;;;4985005;28;20204;-74
2023/07/26 06:27:23;;;;;;;1.85;1.50;;;17.20;99.90;;;;;;4976713;28;20206;-76
2023/07/26 06:29:51;;;;;;;3.08;1.33;;;17.30;99.90;;;;;;4995723;28;20163;-76
2023/07/26 06:32:16;;;;;;;2.55;1.70;;;17.30;99.90;;;;;;4995868;28;20206;-76
2023/07/26 06:34:42;;;;;;;3.92;1.60;;;17.30;99.90;;;;;;4995853;28;20180;-75
2023/07/26 06:37:13;;;;;;;2.08;1.52;;;17.30;99.90;;;;;;4983756;28;20222;-78
2023/07/26 06:39:38;;;;;;;2.05;1.58;;;17.40;99.90;;;;;;4994331;28;20211;-76
2023/07/26 06:42:09;;;;;;;2.25;1.80;;;17.40;99.90;;;;;;4976274;28;20188;-77
2023/07/26 06:44:37;;;;;;;2.47;1.80;;;17.50;99.90;;;;;;4993294;28;20200;-66
2023/07/26 06:47:03;;;;;;;3.92;1.50;;;17.60;99.90;;;;;;4975977;28;20168;-67
2023/07/26 06:49:28;;;;;;;1.88;1.65;;;17.60;99.90;;;;;;4994485;28;20207;-67
2023/07/26 06:51:56;;;;;;;2.15;1.90;;;17.70;99.90;;;;;;4995516;28;20285;-67
2023/07/26 06:54:24;;;;;;;3.90;2.33;;;17.80;99.90;;;;;;4995376;28;20274;-67
2023/07/26 06:56:52;;;;;;;4.63;2.75;;;18.00;99.90;;;;;;4994998;28;20206;-67
2023/07/26 06:59:20;;;;;;;4.97;2.72;;;18.10;99.90;;;;;;4995402;28;20186;-66
2023/07/26 07:01:45;;;;;;;5.78;2.63;;;18.20;99.90;;;;;;4994609;28;20189;-67
2023/07/26 07:04:13;;;;;;;3.70;2.17;;;18.30;99.90;;;;;;4995028;28;20294;-66
2023/07/26 07:06:44;;;;;;;3.88;2.05;;;18.50;99.90;;;;;;4995473;28;20168;-73
2023/07/26 07:09:10;;;;;;;4.15;2.30;;;18.50;99.90;;;;;;4995043;28;20179;-67
2023/07/26 07:11:36;;;;;;;2.45;1.90;;;18.60;99.90;;;;;;4995030;28;20341;-69
2023/07/26 07:14:03;;;;;;;2.50;1.75;;;18.70;99.90;;;;;;4994867;28;20322;-70
2023/07/26 07:16:30;;;;;;;2.55;1.90;;;18.70;99.90;;;;;;4995205;28;20202;-69
2023/07/26 07:18:56;;;;;;;3.13;1.98;;;18.80;99.90;;;;;;4994394;28;20198;-70
2023/07/26 07:21:24;;;;;;;2.75;1.83;;;18.80;99.90;;;;;;4995257;28;20175;-68
2023/07/26 07:23:50;;;;;;;3.55;1.88;;;18.90;99.90;;;;;;4994828;28;20225;-67
2023/07/26 07:26:17;;;;;;;2.65;1.70;;;18.90;99.90;;;;;;4994956;28;20174;-69
2023/07/26 07:28:43;;;;;;;2.45;2.00;;;19.00;99.90;;;;;;4994763;28;20198;-68
2023/07/26 07:31:11;;;;;;;6.22;2.20;;;19.00;99.90;;;;;;4994915;28;20241;-67
2023/07/26 07:33:39;;;;;;;3.22;1.90;;;19.10;99.90;;;;;;4994384;28;20203;-66
2023/07/26 07:36:07;;;;;;;2.80;2.08;;;19.20;99.90;;;;;;4994418;28;20279;-67
2023/07/26 07:38:33;;;;;;;3.50;1.85;;;19.20;99.90;;;;;;4981948;28;20186;-66
2023/07/26 07:40:58;;;;;;;2.35;1.80;;;19.20;99.90;;;;;;4994941;28;20175;-65
2023/07/26 07:43:24;;;;;;;3.38;2.03;;;19.30;99.90;;;;;;4994621;28;20211;-66
2023/07/26 07:45:52;;;;;;;2.33;1.70;;;19.20;99.90;;;;;;4994801;28;20190;-65
2023/07/26 07:48:18;;;;;;;3.97;1.95;;;19.20;99.90;;;;;;4994449;28;20217;-66
2023/07/26 07:50:44;;;;;;;2.40;1.60;;;19.20;99.90;;;;;;4990727;28;20235;-64
2023/07/26 07:53:10;;;;;;;3.38;2.00;;;19.20;99.90;;;;;;4994643;28;20267;-65
2023/07/26 07:55:39;;;;;;;3.90;1.75;;;19.20;99.90;;;;;;4991255;28;20191;-65
2023/07/26 07:58:05;;;;;;;3.72;1.83;;;19.20;99.90;;;;;;4998303;28;20233;-65
2023/07/26 08:00:31;;;;;;;3.08;1.80;;;19.20;99.90;;;;;;5011002;28;20205;-65
2023/07/26 08:02:57;;;;;;;2.25;1.70;;;19.30;99.90;;;;;;5015876;28;20227;-65
2023/07/26 08:05:24;;;;;;;3.25;1.70;;;19.30;99.90;;;;;;4978487;28;20206;-65
2023/07/26 08:07:53;;;;;;;2.95;1.95;;;19.40;99.90;;;;;;4990356;28;20253;-67
2023/07/26 08:10:22;;;;;;;3.47;1.95;;;19.40;99.90;;;;;;4998102;28;20262;-68
2023/07/26 08:12:47;;;;;;;3.72;1.67;;;19.50;99.90;;;;;;4998160;28;20171;-67
2023/07/26 08:15:16;;;;;;;2.72;1.92;;;19.50;99.90;;;;;;4994742;28;20190;-66
2023/07/26 08:17:42;;;;;;;3.85;2.10;;;19.50;99.90;;;;;;4996957;28;20172;-67
2023/07/26 08:20:08;;;;;;;4.20;1.90;;;19.50;99.90;;;;;;5016809;28;20189;-68
2023/07/26 08:22:34;;;;;;;3.42;1.85;;;19.40;99.90;;;;;;4999144;28;20188;-65
2023/07/26 08:25:00;;;;;;;2.45;1.90;;;19.40;99.90;;;;;;5014439;28;20304;-66
2023/07/26 08:27:26;;;;;;;2.75;2.00;;;19.40;99.90;;;;;;5007314;28;20262;-66
2023/07/26 08:29:51;;;;;;;3.00;2.00;;;19.30;99.90;;;;;;5011450;28;20176;-66
2023/07/26 08:32:19;;;;;;;5.13;2.00;;;19.30;99.90;;;;;;4997687;28;20222;-64
2023/07/26 08:34:45;;;;;;;3.40;1.80;;;19.30;99.90;;;;;;4979391;28;20251;-66
2023/07/26 08:37:13;;;;;;;3.90;2.00;;;19.30;99.90;;;;;;4984188;28;20179;-65
2023/07/26 08:39:42;;;;;;;3.55;2.38;;;19.40;99.90;;;;;;4990430;28;20204;-65
2023/07/26 08:42:07;;;;;;;2.60;1.83;;;19.50;99.90;;;;;;4993431;28;20206;-66
2023/07/26 08:44:37;;;;;;;4.40;2.10;;;19.50;99.90;;;;;;5004587;28;20198;-66
2023/07/26 08:47:09;;;;;;;4.10;2.20;;;19.60;99.90;;;;;;5005428;28;20167;-66
2023/07/26 08:49:38;;;;;;;2.92;1.90;;;19.60;99.90;;;;;;4993779;28;20346;-65
2023/07/26 08:52:07;;;;;;;16.65;2.67;;;19.70;99.90;;;;;;4989620;28;20190;-65
2023/07/26 08:54:33;;;;;;;6.55;2.58;;;19.70;99.90;;;;;;4997155;28;20183;-65
2023/07/26 08:56:58;;;;;;;3.65;2.20;;;19.70;99.90;;;;;;5011188;28;20201;-65
2023/07/26 08:59:25;;;;;;;3.20;2.00;;;19.60;99.90;;;;;;5007533;28;20180;-68
2023/07/26 09:01:54;;;;;;;3.13;1.90;;;19.40;99.90;;;;;;4997231;28;20183;-67
2023/07/26 09:04:21;;;;;;;2.53;2.00;;;19.10;99.90;;;;;;4996033;28;20195;-67
2023/07/26 09:06:48;;;;;;;2.50;1.70;;;18.80;99.90;;;;;;4997051;28;20179;-66
2023/07/26 09:09:16;;;;;;;2.45;1.60;;;18.50;99.90;;;;;;4993854;28;20207;-67
2023/07/26 09:11:50;;;;;;;1.90;1.55;;;18.20;99.90;;;;;;4991116;28;20258;-67
2023/07/26 09:14:15;;;;;;;2.20;1.52;;;18.00;99.90;;;;;;5006623;28;20171;-66
2023/07/26 09:16:41;;;;;;;2.15;1.55;;;17.90;99.90;;;;;;4993134;28;20183;-66
2023/07/26 09:19:07;;;;;;;1.90;1.38;;;17.80;99.90;;;;;;4996929;28;20199;-65
2023/07/26 09:21:35;;;;;;;1.70;1.30;;;17.80;99.90;;;;;;4996368;28;20195;-66
2023/07/26 09:24:03;;;;;;;1.70;1.40;;;17.80;99.90;;;;;;4996704;28;20282;-67
2023/07/26 09:26:40;;;;;;;1.55;1.15;;;17.80;99.90;;;;;;4996671;28;20167;-66
2023/07/26 09:29:10;;;;;;;1.52;1.30;;;17.90;99.90;;;;;;4996701;28;20194;-67
2023/07/26 09:31:38;;;;;;;2.10;1.50;;;17.90;99.90;;;;;;4996314;28;20210;-67
2023/07/26 09:34:11;;;;;;;1.55;1.30;;;18.00;99.90;;;;;;4996678;28;20210;-67
2023/07/26 09:36:56;;;;;;;2.53;1.45;;;18.00;99.90;;;;;;4996632;28;20485;-66
2023/07/26 09:39:27;;;;;;;3.53;1.65;;;18.10;99.90;;;;;;4996655;28;20251;-66
2023/07/26 09:42:08;;;;;;;4.22;1.80;;;18.20;99.90;;;;;;4996544;28;20196;-65
2023/07/26 09:44:35;;;;;;;3.08;1.73;;;18.30;99.90;;;;;;4996437;28;20214;-67
2023/07/26 09:47:02;;;;;;;1.70;1.42;;;18.40;99.90;;;;;;4999747;28;20187;-66
2023/07/26 09:49:30;;;;;;;1.80;1.48;;;18.50;99.90;;;;;;4996169;28;20246;-66
2023/07/26 09:52:01;;;;;;;1.90;1.42;;;18.60;99.90;;;;;;4996244;28;20205;-67
2023/07/26 09:54:31;;;;;;;2.92;1.70;;;18.70;99.90;;;;;;4996509;28;20171;-66
2023/07/26 09:56:59;;;;;;;2.00;1.67;;;19.00;99.90;;;;;;4996087;28;20492;-65
2023/07/26 09:59:27;;;;;;;2.50;1.92;;;19.20;99.90;;;;;;4996406;28;20179;-66
2023/07/26 10:01:54;;;;;;;3.22;1.80;;;19.40;99.90;;;;;;4996208;28;20293;-65
2023/07/26 10:04:43;;;;;;;3.05;2.13;;;19.50;99.90;;;;;;4996880;28;20337;-66
2023/07/26 10:07:11;;;;;;;3.85;2.10;;;19.70;99.90;;;;;;5015727;28;20193;-65
2023/07/26 10:09:43;;;;;;;1.90;1.60;;;19.80;99.90;;;;;;5015405;28;20205;-65
2023/07/26 10:12:12;;;;;;;3.30;2.00;;;20.00;99.90;;;;;;5015589;28;20155;-64
2023/07/26 10:14:41;;;;;;;1.98;1.58;;;20.10;99.90;;;;;;5015461;28;20236;-66
2023/07/26 10:17:09;;;;;;;2.83;1.63;;;20.30;99.90;;;;;;5015413;28;20179;-65
2023/07/26 10:19:40;;;;;;;2.38;1.60;;;20.40;99.90;;;;;;5015603;28;20190;-66
2023/07/26 10:22:09;;;;;;;2.75;1.70;;;20.50;99.90;;;;;;4995235;28;20180;-65
2023/07/26 10:24:36;;;;;;;2.35;1.80;;;20.70;99.90;;;;;;4995775;28;20199;-65
2023/07/26 10:27:03;;;;;;;2.33;1.83;;;20.80;99.90;;;;;;4995833;28;20176;-67
2023/07/26 10:29:29;;;;;;;2.92;2.00;;;20.90;99.90;;;;;;4995612;28;20199;-66
2023/07/26 10:32:08;;;;;;;3.30;2.30;;;21.10;99.90;;;;;;4995654;28;20175;-67
2023/07/26 10:34:36;;;;;;;4.10;2.30;;;21.30;99.90;;;;;;4995593;28;20197;-65
2023/07/26 10:37:15;;;;;;;5.90;2.17;;;21.50;99.90;;;;;;4995513;28;20203;-66
2023/07/26 10:39:41;;;;;;;5.60;2.00;;;21.60;99.90;;;;;;4995397;28;20179;-65
2023/07/26 10:42:27;;;;;;;3.53;2.17;;;21.80;99.90;;;;;;4994816;28;20233;-66
2023/07/26 10:44:54;;;;;;;2.67;1.98;;;22.00;99.90;;;;;;4995491;28;20218;-66
2023/07/26 10:47:20;;;;;;;2.78;2.03;;;22.20;99.90;;;;;;4996003;28;20163;-66
2023/07/26 10:49:49;;;;;;;2.28;1.52;;;22.40;99.90;;;;;;4995177;28;20251;-66
2023/07/26 10:52:20;;;;;;;3.95;1.73;;;22.50;99.90;;;;;;4995436;28;20191;-66
2023/07/26 10:54:51;;;;;;;1.75;1.60;;;22.60;99.90;;;;;;4995196;28;20184;-66
2023/07/26 10:57:22;;;;;;;2.50;1.73;;;22.50;99.90;;;;;;4995059;28;20199;-66
2023/07/26 11:00:04;;;;;;;2.30;1.80;;;22.40;99.90;;;;;;4994950;28;20194;-66
2023/07/26 11:02:50;;;;;;;2.35;1.83;;;22.30;99.90;;;;;;4995211;28;20300;-65
2023/07/26 11:05:21;;;;;;;1.73;1.60;;;22.20;99.90;;;;;;4978704;28;20191;-65
2023/07/26 11:08:04;;;;;;;3.33;1.48;;;22.30;99.90;;;;;;4995450;28;20179;-65
2023/07/26 11:10:49;;;;;;;1.60;1.40;;;22.40;99.90;;;;;;4994773;28;20290;-65
2023/07/26 11:13:19;;;;;;;2.83;1.30;;;22.70;99.90;;;;;;4994896;28;20175;-66
2023/07/26 11:15:50;;;;;;;2.95;1.55;;;23.00;99.90;;;;;;4994972;28;20215;-66
2023/07/26 11:18:20;;;;;;;3.88;1.67;;;23.40;99.90;;;;;;4994829;28;20195;-65
2023/07/26 11:20:48;;;;;;;2.17;1.42;;;23.60;99.90;;;;;;5000375;28;20202;-64
2023/07/26 11:23:21;;;;;;;3.03;1.83;;;23.60;99.90;;;;;;4994966;28;20201;-65
2023/07/26 11:25:50;;;;;;;2.30;1.50;;;23.50;99.90;;;;;;4994805;28;20194;-64
2023/07/26 11:28:21;;;;;;;1.83;1.52;;;23.40;99.90;;;;;;4994598;28;20175;-65
2023/07/26 11:30:52;;;;;;;2.03;1.50;;;23.10;99.90;;;;;;4994927;28;20261;-65
2023/07/26 11:33:35;;;;;;;2.42;1.58;;;22.80;99.90;;;;;;4994914;28;20180;-65
2023/07/26 11:36:03;;;;;;;2.08;1.60;;;22.50;99.90;;;;;;4994204;28;20221;-65
2023/07/26 11:38:29;;;;;;;1.73;1.30;;;22.20;99.90;;;;;;4994449;28;20214;-67
2023/07/26 11:40:58;;;;;;;2.47;1.77;;;22.00;99.90;;;;;;4994648;28;20183;-66
2023/07/26 11:43:28;;;;;;;3.30;1.95;;;21.70;99.90;;;;;;4994903;28;20294;-65
2023/07/26 11:45:55;;;;;;;2.42;1.70;;;21.50;99.90;;;;;;4994849;28;20202;-65
2023/07/26 11:48:21;;;;;;;2.38;1.70;;;21.20;99.90;;;;;;4994880;28;20563;-65
2023/07/26 11:50:47;;;;;;;1.75;1.52;;;21.00;99.90;;;;;;4994974;28;20179;-65
2023/07/26 11:53:14;;;;;;;1.90;1.42;;;20.80;99.90;;;;;;4994519;28;20203;-65
2023/07/26 11:55:42;;;;;;;1.92;1.70;;;20.60;99.90;;;;;;4994278;28;20221;-65
2023/07/26 11:58:09;;;;;;;3.25;1.73;;;20.50;99.90;;;;;;4994450;28;20225;-67
2023/07/26 12:00:39;;;;;;;2.00;1.73;;;20.40;99.90;;;;;;4994635;28;20175;-65
2023/07/26 12:03:06;;;;;;;3.85;2.03;;;20.30;99.90;;;;;;4994532;28;20431;-65
2023/07/26 12:05:33;;;;;;;1.88;1.50;;;20.20;99.90;;;;;;4994437;28;20196;-67
2023/07/26 12:08:04;;;;;;;2.05;1.40;;;20.10;99.90;;;;;;4994315;28;20172;-65
2023/07/26 12:10:35;;;;;;;2.42;1.60;;;20.00;99.90;;;;;;4994158;28;20179;-66
2023/07/26 12:13:08;;;;;;;1.80;1.50;;;19.90;99.90;;;;;;4994467;28;20195;-65
2023/07/26 12:15:51;;;;;;;2.40;1.85;;;19.80;99.90;;;;;;4994562;28;20255;-64
2023/07/26 12:18:18;;;;;;;2.65;1.90;;;19.70;99.90;;;;;;5013944;28;20170;-65
2023/07/26 12:21:10;;;;;;;2.60;1.63;;;19.70;99.90;;;;;;5013780;28;20258;-66
2023/07/26 12:23:52;;;;;;;1.90;1.60;;;19.80;99.90;;;;;;5010792;28;20238;-65
2023/07/26 12:26:29;;;;;;;2.25;1.85;;;19.80;99.90;;;;;;5003296;28;20210;-65
2023/07/26 12:28:55;;;;;;;2.53;1.80;;;19.70;99.90;;;;;;4994395;28;20184;-66
2023/07/26 12:31:24;;;;;;;2.53;1.80;;;19.70;99.90;;;;;;4994627;28;20171;-66
2023/07/26 12:33:56;;;;;;;1.85;1.67;;;19.60;99.90;;;;;;4994277;28;20179;-66
2023/07/26 12:36:28;;;;;;;2.63;1.80;;;19.50;99.90;;;;;;4993948;28;20258;-65
2023/07/26 12:38:54;;;;;;;3.13;2.40;;;19.40;99.90;;;;;;4995024;28;20203;-67
2023/07/26 12:41:22;;;;;;;3.22;2.47;;;19.30;99.90;;;;;;4997913;28;20179;-66
2023/07/26 12:43:55;;;;;;;4.13;2.40;;;19.20;99.90;;;;;;4997333;28;20262;-65
2023/07/26 12:46:22;;;;;;;2.53;2.08;;;19.10;99.90;;;;;;4997665;28;20214;-66
2023/07/26 12:48:49;;;;;;;4.28;2.25;;;19.00;99.90;;;;;;4995668;28;20204;-66
2023/07/26 12:51:15;;;;;;;3.13;2.25;;;19.00;99.90;;;;;;4997766;28;20201;-67
2023/07/26 12:53:43;;;;;;;4.15;2.28;;;18.90;99.90;;;;;;4997596;28;20245;-65